Time;durP1;ratioP1;P1;durP2;ratioP2;P2;SDS_P1;SDS_P2;PMS_P1;PMS_P2;Temp;Humidity;BMP_temperature;BMP_pressure;BME280_temperature;BME280_humidity;BME280_pressure;Samples;Min_cycle;Max_cycle;Signal;HPM_P1;HPM_P2
2022/07/12 00:01:19;;;;;;;1.33;0.70;;;;;;;;;;5087918;28;20680;-64
2022/07/12 00:03:46;;;;;;;0.57;0.57;;;;;;;;;;5093217;28;20070;-63
2022/07/12 00:06:12;;;;;;;1.08;0.70;;;;;;;;;;5089154;28;20498;-64
2022/07/12 00:08:38;;;;;;;0.60;0.60;;;;;;;;;;5087591;28;20127;-63
2022/07/12 00:11:04;;;;;;;1.15;0.90;;;;;;;;;;5092069;28;20081;-64
2022/07/12 00:13:30;;;;;;;1.85;1.02;;;;;;;;;;5091734;28;20051;-64
2022/07/12 00:15:57;;;;;;;0.50;0.50;;;;;;;;;;5086333;28;20035;-63
2022/07/12 00:18:23;;;;;;;1.05;0.95;;;;;;;;;;5091169;28;20126;-64
2022/07/12 00:20:49;;;;;;;1.17;0.90;;;;;;;;;;5085696;28;20036;-64
2022/07/12 00:23:16;;;;;;;2.13;1.60;;;;;;;;;;5090731;28;20040;-64
2022/07/12 00:25:42;;;;;;;2.15;0.52;;;;;;;;;;5086422;28;20042;-63
2022/07/12 00:28:08;;;;;;;0.77;0.70;;;;;;;;;;5093082;28;20040;-64
2022/07/12 00:30:34;;;;;;;0.80;0.70;;;;;;;;;;5084593;28;20477;-64
2022/07/12 00:33:00;;;;;;;1.42;1.10;;;;;;;;;;5088722;28;20061;-64
2022/07/12 00:35:26;;;;;;;2.65;1.52;;;;;;;;;;5086598;28;20036;-64
2022/07/12 00:37:52;;;;;;;5.53;1.40;;;;;;;;;;5089019;28;20172;-63
2022/07/12 00:40:18;;;;;;;11.15;1.50;;;;;;;;;;5097016;28;20119;-64
2022/07/12 00:42:44;;;;;;;1.60;0.90;;;;;;;;;;5088259;28;20119;-64
2022/07/12 00:45:10;;;;;;;1.20;1.02;;;;;;;;;;5093658;28;20477;-64
2022/07/12 00:47:46;;;;;;;1.88;1.17;;;;;;;;;;5100981;28;20085;-64
2022/07/12 00:50:14;;;;;;;1.65;1.27;;;;;;;;;;5092306;28;20118;-64
2022/07/12 00:52:41;;;;;;;1.10;1.00;;;;;;;;;;5090904;28;20039;-64
2022/07/12 00:55:08;;;;;;;1.98;1.30;;;;;;;;;;5089299;28;20027;-64
2022/07/12 00:57:34;;;;;;;1.67;0.80;;;;;;;;;;5097260;28;20481;-64
2022/07/12 01:00:00;;;;;;;0.82;0.60;;;;;;;;;;5087859;28;20398;-64
2022/07/12 01:02:28;;;;;;;1.27;0.73;;;;;;;;;;5099651;28;20039;-63
2022/07/12 01:04:55;;;;;;;0.70;0.70;;;;;;;;;;5085984;28;20040;-63
2022/07/12 01:07:24;;;;;;;0.50;0.50;;;;;;;;;;5101799;28;20039;-64
2022/07/12 01:09:50;;;;;;;0.60;0.60;;;;;;;;;;5097789;28;20101;-64
2022/07/12 01:12:16;;;;;;;1.10;1.00;;;;;;;;;;5097404;28;20501;-64
2022/07/12 01:14:42;;;;;;;1.10;1.00;;;;;;;;;;5090416;28;20039;-63
2022/07/12 01:17:08;;;;;;;1.30;1.10;;;;;;;;;;5092663;28;20075;-64
2022/07/12 01:19:35;;;;;;;1.00;0.90;;;;;;;;;;5092023;28;20115;-64
2022/07/12 01:22:02;;;;;;;0.85;0.70;;;;;;;;;;5091389;28;20035;-63
2022/07/12 01:24:28;;;;;;;0.98;0.60;;;;;;;;;;5094179;28;20032;-63
2022/07/12 01:26:55;;;;;;;5.85;1.20;;;;;;;;;;5093634;28;20040;-64
2022/07/12 01:29:21;;;;;;;16.15;1.77;;;;;;;;;;5098371;28;20044;-63
2022/07/12 01:31:47;;;;;;;9.25;1.40;;;;;;;;;;5091142;28;20044;-64
2022/07/12 01:34:14;;;;;;;3.33;1.40;;;;;;;;;;5091946;28;20043;-64
2022/07/12 01:36:40;;;;;;;4.63;1.08;;;;;;;;;;5086921;28;20040;-63
2022/07/12 01:39:06;;;;;;;1.33;0.90;;;;;;;;;;5084530;28;20073;-64
2022/07/12 01:41:32;;;;;;;4.03;0.65;;;;;;;;;;5094640;28;20035;-64
2022/07/12 01:43:59;;;;;;;0.85;0.85;;;;;;;;;;5103012;28;20043;-64
2022/07/12 01:46:25;;;;;;;1.00;0.90;;;;;;;;;;5106088;28;20036;-64
2022/07/12 01:48:51;;;;;;;0.80;0.75;;;;;;;;;;5089529;28;20846;-64
2022/07/12 01:51:17;;;;;;;0.88;0.77;;;;;;;;;;5099309;28;20110;-64
2022/07/12 01:53:43;;;;;;;0.88;0.88;;;;;;;;;;5095432;28;20382;-64
2022/07/12 01:56:09;;;;;;;1.15;1.05;;;;;;;;;;5102920;28;20065;-64
2022/07/12 01:58:35;;;;;;;0.80;0.80;;;;;;;;;;5093008;28;20031;-64
2022/07/12 02:01:01;;;;;;;1.13;1.00;;;;;;;;;;5087893;28;20032;-64
2022/07/12 02:03:27;;;;;;;1.95;0.75;;;;;;;;;;5089818;28;20343;-64
2022/07/12 02:05:54;;;;;;;0.70;0.70;;;;;;;;;;5091008;28;20067;-64
2022/07/12 02:08:19;;;;;;;2.92;0.70;;;;;;;;;;5091086;28;20086;-64
2022/07/12 02:10:45;;;;;;;0.82;0.77;;;;;;;;;;5091750;28;20500;-64
2022/07/12 02:13:11;;;;;;;1.15;0.60;;;;;;;;;;5090717;28;20115;-64
2022/07/12 02:15:38;;;;;;;0.80;0.70;;;;;;;;;;5103032;28;20157;-64
2022/07/12 02:18:03;;;;;;;1.67;0.80;;;;;;;;;;5095709;28;20076;-64
2022/07/12 02:20:30;;;;;;;0.85;0.70;;;;;;;;;;5091468;28;20528;-64
2022/07/12 02:22:56;;;;;;;1.23;0.80;;;;;;;;;;5104314;28;20164;-64
2022/07/12 02:25:22;;;;;;;1.20;0.77;;;;;;;;;;5103626;28;20067;-64
2022/07/12 02:27:49;;;;;;;1.00;0.80;;;;;;;;;;5106087;28;20036;-65
2022/07/12 02:30:15;;;;;;;15.25;1.60;;;;;;;;;;5095566;28;20077;-64
2022/07/12 02:32:41;;;;;;;5.05;1.13;;;;;;;;;;5090997;28;20043;-64
2022/07/12 02:35:07;;;;;;;1.13;0.90;;;;;;;;;;5090077;28;20036;-64
2022/07/12 02:37:33;;;;;;;1.20;0.80;;;;;;;;;;5104079;28;20412;-64
2022/07/12 02:42:44;;;;;;;1.33;0.80;;;;;;;;;;5080379;28;20044;-64
2022/07/12 02:45:10;;;;;;;1.10;1.00;;;;;;;;;;5089877;28;20078;-64
2022/07/12 02:47:40;;;;;;;1.50;1.00;;;;;;;;;;5102716;28;20424;-65
2022/07/12 02:50:09;;;;;;;1.48;1.02;;;;;;;;;;5093205;28;20040;-64
2022/07/12 02:52:35;;;;;;;1.85;1.02;;;;;;;;;;5085903;28;20048;-64
2022/07/12 02:55:01;;;;;;;1.35;0.95;;;;;;;;;;5099082;28;20037;-64
2022/07/12 02:57:27;;;;;;;1.30;0.90;;;;;;;;;;5098413;28;20035;-64
2022/07/12 02:59:53;;;;;;;2.67;1.40;;;;;;;;;;5093017;28;20043;-64
2022/07/12 03:02:19;;;;;;;3.55;2.25;;;;;;;;;;5090123;28;20097;-64
2022/07/12 03:04:45;;;;;;;3.85;2.30;;;;;;;;;;5086707;28;20044;-63
2022/07/12 03:07:11;;;;;;;3.55;1.70;;;;;;;;;;5068484;28;20050;-63
2022/07/12 03:09:37;;;;;;;2.28;1.23;;;;;;;;;;5071737;28;20044;-64
2022/07/12 03:12:03;;;;;;;1.92;0.90;;;;;;;;;;5093118;28;20523;-64
2022/07/12 03:14:29;;;;;;;1.48;0.88;;;;;;;;;;5093940;28;20133;-64
2022/07/12 03:16:55;;;;;;;1.30;0.98;;;;;;;;;;5090048;28;20494;-63
2022/07/12 03:19:21;;;;;;;0.95;0.80;;;;;;;;;;5099129;28;20042;-64
2022/07/12 03:21:47;;;;;;;2.60;0.85;;;;;;;;;;5099652;28;20397;-64
2022/07/12 03:24:13;;;;;;;1.90;0.90;;;;;;;;;;5101614;28;20039;-64
2022/07/12 03:26:39;;;;;;;1.40;1.20;;;;;;;;;;5093642;28;20036;-63
2022/07/12 03:29:05;;;;;;;1.95;1.75;;;;;;;;;;5094449;28;20035;-63
2022/07/12 03:31:32;;;;;;;3.10;2.10;;;;;;;;;;5094368;28;20044;-64
2022/07/12 03:33:58;;;;;;;11.60;1.50;;;;;;;;;;5100339;28;20524;-64
2022/07/12 03:36:24;;;;;;;2.10;1.10;;;;;;;;;;5103315;28;20039;-63
2022/07/12 03:38:49;;;;;;;2.15;0.93;;;;;;;;;;5090915;28;20119;-64
2022/07/12 03:41:15;;;;;;;8.23;1.13;;;;;;;;;;5093211;28;20873;-64
2022/07/12 03:43:42;;;;;;;9.23;1.30;;;;;;;;;;5097519;28;20036;-63
2022/07/12 03:46:07;;;;;;;8.23;1.13;;;;;;;;;;5103977;28;20134;-63
2022/07/12 03:48:33;;;;;;;2.97;0.80;;;;;;;;;;5095127;28;20114;-64
2022/07/12 03:50:59;;;;;;;1.55;0.70;;;;;;;;;;5099103;28;20495;-63
2022/07/12 03:53:25;;;;;;;4.15;0.70;;;;;;;;;;5100360;28;20048;-64
2022/07/12 03:55:51;;;;;;;3.58;0.80;;;;;;;;;;5093398;28;20115;-63
2022/07/12 03:58:18;;;;;;;0.90;0.73;;;;;;;;;;5098876;28;20111;-63
2022/07/12 04:00:44;;;;;;;0.90;0.90;;;;;;;;;;5092882;28;20040;-64
2022/07/12 04:03:10;;;;;;;3.08;1.15;;;;;;;;;;5085059;28;20039;-64
2022/07/12 04:05:37;;;;;;;1.83;1.45;;;;;;;;;;5081360;28;20123;-64
2022/07/12 04:08:03;;;;;;;1.55;1.20;;;;;;;;;;5087868;28;20032;-64
2022/07/12 04:10:29;;;;;;;1.55;1.27;;;;;;;;;;5102905;28;20047;-64
2022/07/12 04:12:55;;;;;;;1.73;1.35;;;;;;;;;;5111080;28;20188;-64
2022/07/12 04:15:22;;;;;;;1.52;1.42;;;;;;;;;;5092996;28;20105;-64
2022/07/12 04:17:48;;;;;;;1.75;1.60;;;;;;;;;;5092407;28;20489;-64
2022/07/12 04:20:14;;;;;;;3.42;1.40;;;;;;;;;;5091292;28;20493;-64
2022/07/12 04:22:40;;;;;;;1.77;1.20;;;;;;;;;;5104750;28;20027;-64
2022/07/12 04:25:07;;;;;;;2.90;1.05;;;;;;;;;;5105299;28;20036;-64
2022/07/12 04:27:33;;;;;;;0.98;0.77;;;;;;;;;;5096255;28;20040;-64
2022/07/12 04:30:00;;;;;;;0.68;0.68;;;;;;;;;;5099417;28;20043;-64
2022/07/12 04:32:25;;;;;;;1.60;0.77;;;;;;;;;;5107102;28;20040;-64
2022/07/12 04:34:52;;;;;;;1.45;0.70;;;;;;;;;;5112536;28;20461;-64
2022/07/12 04:37:18;;;;;;;1.08;0.77;;;;;;;;;;5089012;28;20742;-64
2022/07/12 04:39:44;;;;;;;1.20;0.98;;;;;;;;;;5089262;28;20481;-64
2022/07/12 04:42:10;;;;;;;2.10;0.80;;;;;;;;;;5086675;28;20047;-64
2022/07/12 04:44:36;;;;;;;0.90;0.80;;;;;;;;;;5090704;28;20036;-64
2022/07/12 04:47:02;;;;;;;0.82;0.70;;;;;;;;;;5084578;28;20036;-64
2022/07/12 04:49:28;;;;;;;1.40;0.90;;;;;;;;;;5089219;28;20136;-64
2022/07/12 04:51:54;;;;;;;1.40;1.13;;;;;;;;;;5091735;28;20467;-64
2022/07/12 04:54:20;;;;;;;2.42;1.70;;;;;;;;;;5090296;28;20067;-64
2022/07/12 04:56:46;;;;;;;3.38;1.77;;;;;;;;;;5124338;27;21213;-64
2022/07/12 04:59:12;;;;;;;7.03;2.30;;;;;;;;;;5088222;28;20198;-64
2022/07/12 05:01:40;;;;;;;4.15;2.35;;;;;;;;;;5096763;28;20036;-63
2022/07/12 05:04:05;;;;;;;2.97;2.15;;;;;;;;;;5118903;22;20047;-62
2022/07/12 05:06:31;;;;;;;3.25;2.50;;;;;;;;;;5104220;28;20047;-62
2022/07/12 05:08:58;;;;;;;4.55;3.58;;;;;;;;;;5097141;28;20047;-61
2022/07/12 05:11:24;;;;;;;6.88;3.80;;;;;;;;;;5123093;27;20046;-61
2022/07/12 05:13:50;;;;;;;7.72;4.18;;;;;;;;;;5109375;28;20031;-61
2022/07/12 05:16:16;;;;;;;5.63;3.92;;;;;;;;;;5101225;28;20511;-61
2022/07/12 05:18:42;;;;;;;4.53;3.53;;;;;;;;;;5102853;28;20042;-61
2022/07/12 05:21:08;;;;;;;4.70;3.75;;;;;;;;;;5103390;28;20127;-61
2022/07/12 05:23:34;;;;;;;4.57;3.50;;;;;;;;;;5110280;28;20078;-61
2022/07/12 05:26:00;;;;;;;5.95;4.40;;;;;;;;;;5110730;28;20027;-61
2022/07/12 05:28:26;;;;;;;5.22;4.22;;;;;;;;;;5106048;28;20043;-61
2022/07/12 05:30:52;;;;;;;5.80;4.25;;;;;;;;;;5101692;28;20063;-62
2022/07/12 05:33:18;;;;;;;5.18;3.92;;;;;;;;;;5103958;27;20044;-62
2022/07/12 05:35:44;;;;;;;7.45;5.50;;;;;;;;;;5107417;28;20081;-62
2022/07/12 05:38:10;;;;;;;7.60;6.32;;;;;;;;;;5123535;27;20044;-62
2022/07/12 05:40:36;;;;;;;9.38;7.15;;;;;;;;;;5104764;28;20032;-62
2022/07/12 05:43:02;;;;;;;10.93;7.68;;;;;;;;;;5099171;28;20431;-63
2022/07/12 05:45:28;;;;;;;9.95;7.25;;;;;;;;;;5104358;28;20039;-62
2022/07/12 05:47:54;;;;;;;11.80;7.55;;;;;;;;;;5104665;28;20039;-63
2022/07/12 05:50:20;;;;;;;8.95;6.78;;;;;;;;;;5104783;28;20043;-63
2022/07/12 05:55:44;;;;;;;8.32;6.10;;;;;;;;;;5088085;28;20043;-62
2022/07/12 05:58:11;;;;;;;7.15;6.03;;;;;;;;;;5103434;28;20050;-63
2022/07/12 06:00:37;;;;;;;9.23;6.20;;;;;;;;;;5105710;28;20401;-63
2022/07/12 06:03:03;;;;;;;11.43;6.82;;;;;;;;;;5107395;28;20038;-63
2022/07/12 06:05:29;;;;;;;8.27;6.97;;;;;;;;;;5107419;28;20042;-63
2022/07/12 06:07:55;;;;;;;8.50;7.22;;;;;;;;;;5100309;28;20036;-63
2022/07/12 06:10:21;;;;;;;10.88;8.07;;;;;;;;;;5101337;28;20122;-63
2022/07/12 06:12:47;;;;;;;9.02;7.68;;;;;;;;;;5104001;28;20039;-63
2022/07/12 06:15:13;;;;;;;10.13;8.05;;;;;;;;;;5100669;28;20468;-63
2022/07/12 06:17:39;;;;;;;10.27;7.95;;;;;;;;;;5098825;28;20071;-63
2022/07/12 06:20:06;;;;;;;10.40;7.80;;;;;;;;;;5094964;28;20032;-63
2022/07/12 06:22:32;;;;;;;10.25;7.47;;;;;;;;;;5107584;28;20104;-63
2022/07/12 06:24:58;;;;;;;10.18;7.32;;;;;;;;;;5103114;28;20443;-63
2022/07/12 06:27:24;;;;;;;8.48;7.15;;;;;;;;;;5109410;28;20051;-63
2022/07/12 06:29:50;;;;;;;12.68;7.85;;;;;;;;;;5101571;28;20039;-62
2022/07/12 06:32:16;;;;;;;8.65;7.05;;;;;;;;;;5107728;28;20057;-62
2022/07/12 06:34:42;;;;;;;8.73;7.22;;;;;;;;;;5102003;28;20413;-62
2022/07/12 06:37:08;;;;;;;9.82;6.85;;;;;;;;;;5097689;28;20044;-62
2022/07/12 06:39:38;;;;;;;11.18;7.35;;;;;;;;;;5103603;28;20032;-62
2022/07/12 06:42:04;;;;;;;9.30;7.65;;;;;;;;;;5106610;28;20032;-63
2022/07/12 06:44:31;;;;;;;9.63;7.15;;;;;;;;;;5105141;28;20032;-62
2022/07/12 06:46:57;;;;;;;8.88;7.32;;;;;;;;;;5114645;28;20404;-63
2022/07/12 06:49:23;;;;;;;8.60;7.18;;;;;;;;;;5113085;28;20100;-62
2022/07/12 06:51:49;;;;;;;9.60;7.45;;;;;;;;;;5112172;28;20050;-62
2022/07/12 06:54:15;;;;;;;8.43;6.70;;;;;;;;;;5113637;28;20048;-63
2022/07/12 06:56:41;;;;;;;9.93;7.07;;;;;;;;;;5104451;28;20123;-63
2022/07/12 06:59:10;;;;;;;7.70;6.00;;;;;;;;;;5103139;28;20119;-63
2022/07/12 07:01:37;;;;;;;9.57;6.85;;;;;;;;;;5103718;28;20165;-62
2022/07/12 07:04:03;;;;;;;7.88;7.07;;;;;;;;;;5106090;28;20036;-63
2022/07/12 07:06:29;;;;;;;7.65;6.65;;;;;;;;;;5098660;28;20569;-63
2022/07/12 07:08:55;;;;;;;7.88;6.93;;;;;;;;;;5105893;28;20071;-63
2022/07/12 07:11:21;;;;;;;8.15;6.97;;;;;;;;;;5106174;28;20122;-63
2022/07/12 07:13:47;;;;;;;8.20;7.20;;;;;;;;;;5108431;28;20039;-62
2022/07/12 07:16:13;;;;;;;8.52;7.13;;;;;;;;;;5096877;28;20046;-63
2022/07/12 07:18:40;;;;;;;7.95;6.55;;;;;;;;;;5113353;28;20078;-63
2022/07/12 07:21:06;;;;;;;8.70;7.10;;;;;;;;;;5111424;28;20036;-63
2022/07/12 07:23:32;;;;;;;9.07;6.88;;;;;;;;;;5104324;28;20036;-63
2022/07/12 07:25:58;;;;;;;7.68;6.57;;;;;;;;;;5103741;28;20051;-63
2022/07/12 07:28:24;;;;;;;8.02;6.43;;;;;;;;;;5104166;28;20494;-63
2022/07/12 07:30:53;;;;;;;8.02;6.55;;;;;;;;;;5107930;28;20036;-63
2022/07/12 07:33:20;;;;;;;8.45;7.00;;;;;;;;;;5105260;28;20035;-63
2022/07/12 07:35:46;;;;;;;9.48;6.32;;;;;;;;;;5109822;28;20106;-63
2022/07/12 07:38:12;;;;;;;7.45;6.20;;;;;;;;;;5102083;28;20043;-63
2022/07/12 07:40:38;;;;;;;8.25;6.88;;;;;;;;;;5102631;28;20073;-63
2022/07/12 07:43:04;;;;;;;7.68;6.65;;;;;;;;;;5107330;28;20039;-63
2022/07/12 07:45:30;;;;;;;7.32;6.15;;;;;;;;;;5109469;28;20032;-63
2022/07/12 07:47:57;;;;;;;7.60;6.00;;;;;;;;;;5102576;28;20043;-63
2022/07/12 07:50:23;;;;;;;7.28;5.93;;;;;;;;;;5100958;28;20089;-63
2022/07/12 07:52:51;;;;;;;6.70;6.00;;;;;;;;;;5107108;28;20035;-63
2022/07/12 07:55:17;;;;;;;8.02;6.00;;;;;;;;;;5104579;28;20448;-63
2022/07/12 07:57:43;;;;;;;6.95;5.65;;;;;;;;;;5109968;28;20042;-63
2022/07/12 08:00:09;;;;;;;6.97;5.72;;;;;;;;;;5111858;28;20493;-63
2022/07/12 08:02:36;;;;;;;6.47;5.32;;;;;;;;;;5105197;28;20062;-65
2022/07/12 08:05:02;;;;;;;5.80;5.18;;;;;;;;;;5135800;27;20039;-64
2022/07/12 08:07:28;;;;;;;6.00;5.40;;;;;;;;;;5108076;28;20121;-63
2022/07/12 08:09:54;;;;;;;8.13;5.88;;;;;;;;;;5105401;28;20090;-63
2022/07/12 08:12:20;;;;;;;9.25;5.85;;;;;;;;;;5110142;28;20039;-63
2022/07/12 08:14:46;;;;;;;5.60;4.85;;;;;;;;;;5112315;28;20058;-63
2022/07/12 08:17:12;;;;;;;6.93;4.82;;;;;;;;;;5110486;28;20101;-63
2022/07/12 08:19:38;;;;;;;5.65;5.15;;;;;;;;;;5108860;28;20035;-63
2022/07/12 08:22:04;;;;;;;5.13;4.40;;;;;;;;;;5103769;28;20074;-63
2022/07/12 08:24:30;;;;;;;5.97;4.97;;;;;;;;;;5106373;28;20141;-63
2022/07/12 08:26:56;;;;;;;5.97;5.35;;;;;;;;;;5105816;28;20040;-63
2022/07/12 08:29:22;;;;;;;4.57;4.18;;;;;;;;;;5100873;28;20047;-63
2022/07/12 08:31:48;;;;;;;8.82;4.28;;;;;;;;;;5091928;28;20054;-63
2022/07/12 08:34:14;;;;;;;5.30;4.80;;;;;;;;;;5101452;28;20420;-63
2022/07/12 08:36:40;;;;;;;4.95;4.38;;;;;;;;;;5104143;28;20036;-63
2022/07/12 08:39:06;;;;;;;5.45;4.65;;;;;;;;;;5107939;28;20040;-63
2022/07/12 08:41:32;;;;;;;4.97;4.25;;;;;;;;;;5112902;28;20485;-63
2022/07/12 08:43:58;;;;;;;5.50;4.93;;;;;;;;;;5098074;28;20036;-63
2022/07/12 08:46:24;;;;;;;5.22;4.57;;;;;;;;;;5102657;28;20044;-63
2022/07/12 08:48:50;;;;;;;5.38;3.95;;;;;;;;;;5107282;28;20035;-63
2022/07/12 08:51:20;;;;;;;5.00;3.97;;;;;;;;;;5109460;28;20565;-63
2022/07/12 08:53:49;;;;;;;5.20;4.20;;;;;;;;;;5107010;28;20043;-63
2022/07/12 08:56:33;;;;;;;6.45;4.75;;;;;;;;;;5109052;28;20050;-63
2022/07/12 08:59:13;;;;;;;5.00;4.40;;;;;;;;;;5104553;28;20039;-63
2022/07/12 09:01:43;;;;;;;7.82;5.10;;;;;;;;;;5108465;28;20115;-63
2022/07/12 09:04:13;;;;;;;5.95;4.95;;;;;;;;;;5107614;28;20036;-63
2022/07/12 09:06:39;;;;;;;5.57;5.07;;;;;;;;;;5103021;28;20081;-63
2022/07/12 09:09:08;;;;;;;5.00;4.60;;;;;;;;;;5095908;28;20398;-63
2022/07/12 09:11:34;;;;;;;5.35;4.57;;;;;;;;;;5109273;28;20039;-63
2022/07/12 09:14:02;;;;;;;4.80;4.00;;;;;;;;;;5111610;27;20082;-63
2022/07/12 09:16:28;;;;;;;5.32;4.82;;;;;;;;;;5101031;28;20051;-63
2022/07/12 09:19:16;;;;;;;4.22;3.65;;;;;;;;;;5106430;28;20060;-63
2022/07/12 09:21:52;;;;;;;5.40;4.00;;;;;;;;;;5113046;28;20438;-63
2022/07/12 09:24:19;;;;;;;4.50;3.75;;;;;;;;;;5111673;28;20065;-63
2022/07/12 09:26:45;;;;;;;4.30;3.88;;;;;;;;;;5102558;28;20039;-63
2022/07/12 09:29:13;;;;;;;8.15;4.20;;;;;;;;;;5103069;28;20032;-63
2022/07/12 09:37:17;;;;;;;3.53;3.22;;;;;;;;;;5108450;28;20043;-63
2022/07/12 09:39:44;;;;;;;5.82;3.47;;;;;;;;;;5091587;28;20040;-63
2022/07/12 09:42:10;;;;;;;3.33;3.03;;;;;;;;;;5091833;28;20036;-63
2022/07/12 09:44:37;;;;;;;6.53;2.90;;;;;;;;;;5101937;28;20438;-63
2022/07/12 09:47:03;;;;;;;3.00;2.70;;;;;;;;;;5103594;28;20400;-64
2022/07/12 09:49:29;;;;;;;2.17;1.98;;;;;;;;;;5091693;28;20040;-62
2022/07/12 09:51:56;;;;;;;2.10;1.90;;;;;;;;;;5091360;28;20500;-63
2022/07/12 09:54:25;;;;;;;2.55;1.80;;;;;;;;;;5100950;28;20040;-63
2022/07/12 09:56:54;;;;;;;1.90;1.80;;;;;;;;;;5102034;28;20044;-63
2022/07/12 09:59:23;;;;;;;3.03;2.10;;;;;;;;;;5101801;28;20050;-64
2022/07/12 10:01:49;;;;;;;2.30;2.10;;;;;;;;;;5091212;28;20040;-63
2022/07/12 10:04:16;;;;;;;3.53;2.00;;;;;;;;;;5104239;28;20528;-63
2022/07/12 10:06:42;;;;;;;2.90;1.95;;;;;;;;;;5102977;28;20311;-63
2022/07/12 10:09:08;;;;;;;2.17;1.98;;;;;;;;;;5094797;28;20043;-64
2022/07/12 10:11:35;;;;;;;6.22;3.17;;;;;;;;;;5091735;28;20454;-64
2022/07/12 10:14:01;;;;;;;3.13;2.58;;;;;;;;;;5095811;28;20114;-63
2022/07/12 10:16:27;;;;;;;2.30;2.00;;;;;;;;;;5106847;28;20043;-63
2022/07/12 10:19:12;;;;;;;2.20;2.00;;;;;;;;;;5107718;28;20039;-63
2022/07/12 10:21:42;;;;;;;3.25;2.00;;;;;;;;;;5116073;28;20563;-63
2022/07/12 10:24:29;;;;;;;1.60;1.50;;;;;;;;;;5108338;28;20094;-64
2022/07/12 10:26:55;;;;;;;2.10;1.88;;;;;;;;;;5105066;28;20039;-63
2022/07/12 10:29:21;;;;;;;3.15;2.22;;;;;;;;;;5096807;28;20241;-63
2022/07/12 10:31:47;;;;;;;1.98;1.77;;;;;;;;;;5094711;28;20048;-63
2022/07/12 10:34:14;;;;;;;3.08;1.70;;;;;;;;;;5100833;28;20031;-64
2022/07/12 10:36:56;;;;;;;2.13;1.60;;;;;;;;;;5104539;28;20085;-64
2022/07/12 10:39:28;;;;;;;2.80;2.13;;;;;;;;;;5121076;27;20050;-64
2022/07/12 10:42:06;;;;;;;3.13;2.13;;;;;;;;;;5110940;28;20035;-63
2022/07/12 10:44:36;;;;;;;1.70;1.60;;;;;;;;;;5109220;28;20031;-64
2022/07/12 10:47:03;;;;;;;1.48;1.27;;;;;;;;;;5110902;28;20076;-63
2022/07/12 10:49:30;;;;;;;1.85;1.52;;;;;;;;;;5105732;28;20039;-64
2022/07/12 10:52:10;;;;;;;3.10;1.90;;;;;;;;;;5104286;28;20031;-63
2022/07/12 10:54:55;;;;;;;1.60;1.50;;;;;;;;;;5101881;28;20457;-63
2022/07/12 10:57:40;;;;;;;1.60;1.38;;;;;;;;;;5103026;28;20152;-64
2022/07/12 11:00:08;;;;;;;1.33;1.13;;;;;;;;;;5109469;28;20031;-64
2022/07/12 11:02:34;;;;;;;2.70;1.40;;;;;;;;;;5100709;28;20040;-64
2022/07/12 11:05:00;;;;;;;1.38;1.27;;;;;;;;;;5124556;22;20096;-62
2022/07/12 11:07:26;;;;;;;1.95;1.50;;;;;;;;;;5098699;28;20047;-62
2022/07/12 11:09:52;;;;;;;2.08;1.08;;;;;;;;;;5102980;28;20035;-62
2022/07/12 11:12:18;;;;;;;3.10;1.80;;;;;;;;;;5104095;28;20093;-62
2022/07/12 11:14:46;;;;;;;4.00;1.80;;;;;;;;;;5096402;28;20036;-62
2022/07/12 11:17:12;;;;;;;2.22;1.55;;;;;;;;;;5090316;28;20047;-62
2022/07/12 11:19:38;;;;;;;1.80;1.60;;;;;;;;;;5088978;28;20446;-62
2022/07/12 11:22:04;;;;;;;2.38;1.45;;;;;;;;;;5090238;28;20040;-62
2022/07/12 11:24:37;;;;;;;1.85;1.60;;;;;;;;;;5097793;28;20067;-62
2022/07/12 11:27:04;;;;;;;1.85;1.70;;;;;;;;;;5091463;28;20245;-62
2022/07/12 11:29:31;;;;;;;2.08;1.20;;;;;;;;;;5085911;28;20466;-62
2022/07/12 11:32:03;;;;;;;1.75;1.55;;;;;;;;;;5088793;28;20047;-62
2022/07/12 11:34:29;;;;;;;1.63;1.20;;;;;;;;;;5086937;28;20040;-62
2022/07/12 11:36:56;;;;;;;1.23;1.13;;;;;;;;;;5097157;28;20042;-62
2022/07/12 11:39:38;;;;;;;1.15;1.02;;;;;;;;;;5102796;28;20153;-62
2022/07/12 11:42:05;;;;;;;1.25;1.15;;;;;;;;;;5086357;28;20036;-62
2022/07/12 11:44:47;;;;;;;2.22;1.40;;;;;;;;;;5090738;28;20032;-62
2022/07/12 11:47:14;;;;;;;2.47;1.20;;;;;;;;;;5091007;28;20123;-62
2022/07/12 11:49:47;;;;;;;1.75;1.20;;;;;;;;;;5080393;28;20062;-62
2022/07/12 11:52:17;;;;;;;2.72;1.58;;;;;;;;;;5089764;28;20043;-62
2022/07/12 11:54:46;;;;;;;1.85;1.30;;;;;;;;;;5092554;28;20066;-62
2022/07/12 11:57:13;;;;;;;5.18;1.25;;;;;;;;;;5085014;28;20071;-62
2022/07/12 11:59:39;;;;;;;1.55;0.90;;;;;;;;;;5088511;28;20570;-62
2022/07/12 12:02:09;;;;;;;2.88;1.10;;;;;;;;;;5094036;28;20481;-62
2022/07/12 12:04:48;;;;;;;0.98;0.98;;;;;;;;;;5085651;28;20028;-62
2022/07/12 12:07:18;;;;;;;2.65;1.30;;;;;;;;;;5084857;28;20070;-62
2022/07/12 12:10:04;;;;;;;1.10;1.02;;;;;;;;;;5073097;28;20049;-62
2022/07/12 12:12:36;;;;;;;1.85;0.90;;;;;;;;;;5090748;28;20048;-62
2022/07/12 12:15:04;;;;;;;2.10;0.90;;;;;;;;;;5073173;28;20068;-62
2022/07/12 12:17:30;;;;;;;1.08;0.80;;;;;;;;;;5092555;28;20113;-62
2022/07/12 12:19:56;;;;;;;3.50;0.77;;;;;;;;;;5092399;28;20036;-62
2022/07/12 12:22:29;;;;;;;1.95;1.08;;;;;;;;;;5092142;28;20120;-62
2022/07/12 12:25:01;;;;;;;0.85;0.80;;;;;;;;;;5094829;28;20438;-62
2022/07/12 12:27:27;;;;;;;1.90;1.10;;;;;;;;;;5080168;28;20052;-62
2022/07/12 12:29:53;;;;;;;1.15;0.85;;;;;;;;;;5081497;28;20044;-63
2022/07/12 12:32:19;;;;;;;1.27;1.10;;;;;;;;;;5092000;28;20165;-63
2022/07/12 12:35:04;;;;;;;1.15;0.98;;;;;;;;;;5092366;28;20032;-63
2022/07/12 12:37:30;;;;;;;1.40;0.80;;;;;;;;;;5091949;28;20131;-64
2022/07/12 12:39:57;;;;;;;0.80;0.80;;;;;;;;;;5079313;28;20071;-63
2022/07/12 12:42:26;;;;;;;1.35;0.73;;;;;;;;;;5085950;28;20044;-63
2022/07/12 12:44:52;;;;;;;2.58;0.98;;;;;;;;;;5083943;28;20032;-63
2022/07/12 12:47:30;;;;;;;0.90;0.90;;;;;;;;;;5091622;28;20122;-63
2022/07/12 12:49:57;;;;;;;3.35;0.80;;;;;;;;;;5086582;28;20047;-63
2022/07/12 12:52:23;;;;;;;1.15;0.70;;;;;;;;;;5091954;28;20040;-62
2022/07/12 12:54:49;;;;;;;1.75;0.60;;;;;;;;;;5086692;28;20498;-63
2022/07/12 12:57:15;;;;;;;1.30;0.60;;;;;;;;;;5085936;28;20082;-63
2022/07/12 12:59:41;;;;;;;2.28;0.60;;;;;;;;;;5085411;28;20444;-63
2022/07/12 13:02:08;;;;;;;0.68;0.60;;;;;;;;;;5081745;28;20483;-62
2022/07/12 13:04:35;;;;;;;0.57;0.50;;;;;;;;;;5086549;28;20034;-64
2022/07/12 13:07:02;;;;;;;0.63;0.50;;;;;;;;;;5086856;28;20067;-64
2022/07/12 13:09:29;;;;;;;0.85;0.43;;;;;;;;;;5074187;28;20103;-64
2022/07/12 13:11:55;;;;;;;0.40;0.40;;;;;;;;;;5088945;28;20454;-65
2022/07/12 13:14:21;;;;;;;0.50;0.45;;;;;;;;;;5085109;28;20439;-63
2022/07/12 13:16:47;;;;;;;0.98;0.40;;;;;;;;;;5083012;28;20040;-64
2022/07/12 13:19:13;;;;;;;1.05;0.55;;;;;;;;;;5087915;28;20402;-64
2022/07/12 13:21:39;;;;;;;0.43;0.43;;;;;;;;;;5086170;28;20028;-64
2022/07/12 13:24:05;;;;;;;1.25;0.55;;;;;;;;;;5079230;28;20032;-64
2022/07/12 13:26:31;;;;;;;1.35;0.60;;;;;;;;;;5086854;28;20115;-64
2022/07/12 13:28:57;;;;;;;0.68;0.68;;;;;;;;;;5083520;28;20497;-64
2022/07/12 13:31:26;;;;;;;0.85;0.60;;;;;;;;;;5088088;28;20047;-64
2022/07/12 13:33:52;;;;;;;3.35;0.50;;;;;;;;;;5088328;28;20032;-65
2022/07/12 13:36:18;;;;;;;1.80;0.50;;;;;;;;;;5073434;28;20055;-64
2022/07/12 13:38:44;;;;;;;0.43;0.43;;;;;;;;;;5071652;28;20551;-65
2022/07/12 13:41:10;;;;;;;0.82;0.40;;;;;;;;;;5093288;28;20035;-65
2022/07/12 13:43:36;;;;;;;0.65;0.40;;;;;;;;;;5086467;28;20102;-64
2022/07/12 13:46:02;;;;;;;1.52;0.40;;;;;;;;;;5080848;28;20086;-65
2022/07/12 13:48:28;;;;;;;1.17;0.60;;;;;;;;;;5088599;28;20054;-65
2022/07/12 13:50:54;;;;;;;0.93;0.50;;;;;;;;;;5084093;28;20082;-64
2022/07/12 13:53:20;;;;;;;0.50;0.50;;;;;;;;;;5090168;28;20055;-64
2022/07/12 13:55:46;;;;;;;0.55;0.40;;;;;;;;;;5087822;28;20044;-65
2022/07/12 13:58:15;;;;;;;3.90;0.60;;;;;;;;;;5088377;28;20044;-65
2022/07/12 14:00:42;;;;;;;0.85;0.50;;;;;;;;;;5089626;28;20043;-65
2022/07/12 14:03:08;;;;;;;0.75;0.60;;;;;;;;;;5083329;28;20044;-65
2022/07/12 14:05:34;;;;;;;0.88;0.40;;;;;;;;;;5086914;28;20040;-65
2022/07/12 14:08:00;;;;;;;0.75;0.50;;;;;;;;;;5086532;28;20051;-65
2022/07/12 14:10:28;;;;;;;1.33;0.50;;;;;;;;;;5098275;28;20071;-65
2022/07/12 14:12:54;;;;;;;0.50;0.50;;;;;;;;;;5112100;28;20088;-65
2022/07/12 14:15:39;;;;;;;1.02;0.60;;;;;;;;;;5103235;28;20051;-65
2022/07/12 14:18:06;;;;;;;0.73;0.70;;;;;;;;;;5086160;28;20036;-65
2022/07/12 14:20:33;;;;;;;1.85;0.65;;;;;;;;;;5088221;28;20548;-64
2022/07/12 14:22:59;;;;;;;0.70;0.60;;;;;;;;;;5076399;28;20032;-65
2022/07/12 14:25:25;;;;;;;2.15;0.70;;;;;;;;;;5090178;28;20040;-65
2022/07/12 14:27:51;;;;;;;1.67;0.60;;;;;;;;;;5090139;28;20044;-65
2022/07/12 14:30:17;;;;;;;0.75;0.60;;;;;;;;;;5080284;28;20078;-65
2022/07/12 14:32:43;;;;;;;3.40;0.88;;;;;;;;;;5091269;28;20052;-64
2022/07/12 14:35:10;;;;;;;0.82;0.70;;;;;;;;;;5090210;28;20039;-65
2022/07/12 14:37:36;;;;;;;0.70;0.60;;;;;;;;;;5082574;28;20061;-65
2022/07/12 14:40:05;;;;;;;1.58;0.68;;;;;;;;;;5080849;28;20110;-65
2022/07/12 14:42:31;;;;;;;0.80;0.80;;;;;;;;;;5089518;28;20039;-65
2022/07/12 14:44:57;;;;;;;0.73;0.70;;;;;;;;;;5091207;28;20170;-65
2022/07/12 14:47:24;;;;;;;0.60;0.60;;;;;;;;;;5090864;28;20036;-66
2022/07/12 14:49:50;;;;;;;2.83;0.60;;;;;;;;;;5091854;28;20058;-65
2022/07/12 14:52:16;;;;;;;1.35;0.52;;;;;;;;;;5081552;28;20389;-65
2022/07/12 14:54:42;;;;;;;1.73;0.50;;;;;;;;;;5070107;28;20058;-65